Time;durP1;ratioP1;P1;durP2;ratioP2;P2;SDS_P1;SDS_P2;PMS_P1;PMS_P2;Temp;Humidity;BMP_temperature;BMP_pressure;BME280_temperature;BME280_humidity;BME280_pressure;Samples;Min_cycle;Max_cycle;Signal;HPM_P1;HPM_P2
2021/08/29 00:01:22;;;;;;;11.70;6.25;;;;;;;;;;5000662;28;20523;-69
2021/08/29 00:03:49;;;;;;;8.15;3.70;;;;;;;;;;4982733;28;20042;-70
2021/08/29 00:06:16;;;;;;;6.30;3.40;;;;;;;;;;4995860;28;20050;-70
2021/08/29 00:08:44;;;;;;;9.52;3.90;;;;;;;;;;4984763;28;20061;-71
2021/08/29 00:11:11;;;;;;;7.95;4.32;;;;;;;;;;4987166;28;20046;-69
2021/08/29 00:13:38;;;;;;;8.52;3.45;;;;;;;;;;4985296;28;20528;-74
2021/08/29 00:16:05;;;;;;;7.43;3.63;;;;;;;;;;4986157;28;20057;-73
2021/08/29 00:18:33;;;;;;;11.55;4.90;;;;;;;;;;4968352;28;20031;-69
2021/08/29 00:21:00;;;;;;;7.18;3.80;;;;;;;;;;4984837;28;20049;-71
2021/08/29 00:23:27;;;;;;;12.38;3.47;;;;;;;;;;4985836;28;20038;-73
2021/08/29 00:25:54;;;;;;;9.52;3.85;;;;;;;;;;5001754;28;20050;-69
2021/08/29 00:28:22;;;;;;;8.60;4.03;;;;;;;;;;4985777;28;20468;-69
2021/08/29 00:30:49;;;;;;;7.93;4.47;;;;;;;;;;4984819;28;20046;-73
2021/08/29 00:33:16;;;;;;;6.32;3.40;;;;;;;;;;4984586;28;20039;-72
2021/08/29 00:35:43;;;;;;;6.00;3.60;;;;;;;;;;4983578;28;20046;-72
2021/08/29 00:38:10;;;;;;;9.52;3.80;;;;;;;;;;4986083;28;20058;-73
2021/08/29 00:40:38;;;;;;;10.32;4.03;;;;;;;;;;4985020;28;20049;-71
2021/08/29 00:43:07;;;;;;;8.95;4.00;;;;;;;;;;4986414;28;20401;-71
2021/08/29 00:45:36;;;;;;;13.18;4.50;;;;;;;;;;4986171;28;20508;-70
2021/08/29 00:48:07;;;;;;;8.13;3.75;;;;;;;;;;4986407;28;20099;-73
2021/08/29 00:50:35;;;;;;;7.57;3.85;;;;;;;;;;4985858;28;20080;-69
2021/08/29 00:53:08;;;;;;;10.77;3.55;;;;;;;;;;4986164;28;20457;-69
2021/08/29 00:55:35;;;;;;;9.07;3.80;;;;;;;;;;4986266;28;20045;-70
2021/08/29 00:58:03;;;;;;;7.03;3.85;;;;;;;;;;4986381;28;20120;-69
2021/08/29 01:00:33;;;;;;;6.55;3.65;;;;;;;;;;4987178;28;20489;-69
2021/08/29 01:03:01;;;;;;;8.57;4.00;;;;;;;;;;4968433;28;20547;-71
2021/08/29 01:05:29;;;;;;;7.47;3.47;;;;;;;;;;4985878;28;20039;-70
2021/08/29 01:08:06;;;;;;;8.38;3.58;;;;;;;;;;4986619;28;20069;-71
2021/08/29 01:10:54;;;;;;;5.88;3.40;;;;;;;;;;4991053;28;20034;-72
2021/08/29 01:13:37;;;;;;;7.68;3.85;;;;;;;;;;4986150;28;20074;-72
2021/08/29 01:16:11;;;;;;;12.32;3.90;;;;;;;;;;4983960;28;20111;-71
2021/08/29 01:18:43;;;;;;;7.80;3.38;;;;;;;;;;4984300;28;20045;-71
2021/08/29 01:21:33;;;;;;;9.27;3.47;;;;;;;;;;4985643;28;20121;-72
2021/08/29 01:24:04;;;;;;;6.03;3.50;;;;;;;;;;4984210;28;20043;-71
2021/08/29 01:26:49;;;;;;;11.60;4.20;;;;;;;;;;4984154;28;20425;-72
2021/08/29 01:29:23;;;;;;;7.00;3.30;;;;;;;;;;4977765;28;20522;-71
2021/08/29 01:31:50;;;;;;;5.43;3.30;;;;;;;;;;4970075;28;20047;-72
2021/08/29 01:34:19;;;;;;;9.05;3.55;;;;;;;;;;4977522;28;20050;-69
2021/08/29 01:36:47;;;;;;;;;;;;;;;;;;4999733;28;20046;-72
2021/08/29 01:39:15;;;;;;;8.20;3.95;;;;;;;;;;4998891;28;19921;-70
2021/08/29 01:41:45;;;;;;;8.82;3.88;;;;;;;;;;4982475;28;20606;-71
2021/08/29 01:44:13;;;;;;;8.57;4.15;;;;;;;;;;4984001;28;20045;-70
2021/08/29 01:46:42;;;;;;;6.85;3.90;;;;;;;;;;4984886;28;20050;-70
2021/08/29 01:49:11;;;;;;;7.65;4.05;;;;;;;;;;4998898;28;20034;-70
2021/08/29 01:51:40;;;;;;;6.10;3.53;;;;;;;;;;4983988;28;20068;-70
2021/08/29 01:54:07;;;;;;;7.55;4.10;;;;;;;;;;4974352;28;20054;-71
2021/08/29 01:57:14;;;;;;;10.00;3.97;;;;;;;;;;4970387;28;20057;-75
2021/08/29 01:59:43;;;;;;;7.85;3.47;;;;;;;;;;4971873;28;20062;-71
2021/08/29 02:02:12;;;;;;;8.38;4.30;;;;;;;;;;4963082;28;20047;-70
2021/08/29 02:04:41;;;;;;;6.25;3.78;;;;;;;;;;4964681;28;20046;-71
2021/08/29 02:07:26;;;;;;;9.70;4.45;;;;;;;;;;4963530;28;20047;-71
2021/08/29 02:10:00;;;;;;;8.35;3.67;;;;;;;;;;4979305;28;20193;-71
2021/08/29 02:12:31;;;;;;;7.50;4.03;;;;;;;;;;4964894;28;20078;-71
2021/08/29 02:15:07;;;;;;;7.15;4.13;;;;;;;;;;4971207;28;20050;-70
2021/08/29 02:17:35;;;;;;;6.22;3.72;;;;;;;;;;4970179;28;20051;-71
2021/08/29 02:20:08;;;;;;;7.72;4.50;;;;;;;;;;4963184;28;20042;-74
2021/08/29 02:22:36;;;;;;;8.70;4.43;;;;;;;;;;4964207;28;20035;-71
2021/08/29 02:25:05;;;;;;;9.98;4.07;;;;;;;;;;4963914;28;20054;-73
2021/08/29 02:27:34;;;;;;;8.32;5.05;;;;;;;;;;4964594;28;20093;-73
2021/08/29 02:30:05;;;;;;;8.98;4.68;;;;;;;;;;4963812;28;20034;-72
2021/08/29 02:32:36;;;;;;;10.00;4.70;;;;;;;;;;4946612;28;20042;-75
2021/08/29 02:35:04;;;;;;;7.70;4.32;;;;;;;;;;4964477;28;20086;-70
2021/08/29 02:37:32;;;;;;;;;;;;;;;;;;4961178;28;20381;-74
2021/08/29 02:40:06;;;;;;;10.52;4.45;;;;;;;;;;4964574;28;19922;-72
2021/08/29 02:42:34;;;;;;;8.57;4.47;;;;;;;;;;4977706;28;20058;-72
2021/08/29 02:45:07;;;;;;;11.80;5.78;;;;;;;;;;4957504;28;20047;-71
2021/08/29 02:47:34;;;;;;;9.32;5.28;;;;;;;;;;4962122;28;20137;-69
2021/08/29 02:50:02;;;;;;;12.50;6.63;;;;;;;;;;4962140;28;20118;-71
2021/08/29 02:52:29;;;;;;;11.75;5.93;;;;;;;;;;4961593;28;20449;-71
2021/08/29 02:54:58;;;;;;;8.35;5.57;;;;;;;;;;4961713;28;20421;-71
2021/08/29 02:57:34;;;;;;;;;;;;;;;;;;4964159;28;20041;-70
2021/08/29 03:00:03;;;;;;;14.35;6.88;;;;;;;;;;4964132;28;20416;-69
2021/08/29 03:02:30;;;;;;;13.02;7.63;;;;;;;;;;4978082;28;20042;-70
2021/08/29 03:04:58;;;;;;;13.82;6.85;;;;;;;;;;4964138;28;20055;-70
2021/08/29 03:07:25;;;;;;;15.90;7.22;;;;;;;;;;4963385;28;20035;-70
2021/08/29 03:09:52;;;;;;;12.07;6.43;;;;;;;;;;4963342;28;20050;-69
2021/08/29 03:12:20;;;;;;;11.98;6.68;;;;;;;;;;4978284;28;20038;-70
2021/08/29 03:14:48;;;;;;;12.35;7.30;;;;;;;;;;4963510;28;20135;-70
2021/08/29 03:17:17;;;;;;;13.52;7.05;;;;;;;;;;4963184;28;20105;-72
2021/08/29 03:19:45;;;;;;;12.32;6.85;;;;;;;;;;4942895;28;20058;-71
2021/08/29 03:22:13;;;;;;;13.52;6.75;;;;;;;;;;4962424;28;20047;-74
2021/08/29 03:24:40;;;;;;;9.52;6.28;;;;;;;;;;4961826;28;20772;-70
2021/08/29 03:27:08;;;;;;;11.82;7.13;;;;;;;;;;4961661;28;20047;-70
2021/08/29 03:29:35;;;;;;;12.32;6.93;;;;;;;;;;4974158;28;20511;-69
2021/08/29 03:32:03;;;;;;;11.77;7.30;;;;;;;;;;4971716;28;20421;-70
2021/08/29 03:34:34;;;;;;;15.52;8.02;;;;;;;;;;4982966;28;20049;-70
2021/08/29 03:37:04;;;;;;;17.45;7.15;;;;;;;;;;4980632;28;20042;-71
2021/08/29 03:39:31;;;;;;;13.40;7.53;;;;;;;;;;4996288;28;20039;-73
2021/08/29 03:42:00;;;;;;;18.58;8.80;;;;;;;;;;4974824;28;20038;-68
2021/08/29 03:44:28;;;;;;;18.70;9.18;;;;;;;;;;4974368;28;20049;-71
2021/08/29 03:46:56;;;;;;;19.65;9.35;;;;;;;;;;4969851;28;20179;-69
2021/08/29 03:49:25;;;;;;;16.13;9.57;;;;;;;;;;4978055;28;20046;-72
2021/08/29 03:51:54;;;;;;;18.33;10.55;;;;;;;;;;4963475;28;20041;-69
2021/08/29 03:54:21;;;;;;;21.95;11.50;;;;;;;;;;4963554;28;20062;-72
2021/08/29 03:56:49;;;;;;;21.23;11.75;;;;;;;;;;4979244;28;20090;-68
2021/08/29 03:59:16;;;;;;;22.08;10.45;;;;;;;;;;4963706;28;20125;-70
2021/08/29 04:01:43;;;;;;;19.20;10.75;;;;;;;;;;4964119;28;20051;-70
2021/08/29 04:04:11;;;;;;;18.30;10.93;;;;;;;;;;4966861;28;20090;-74
2021/08/29 04:06:39;;;;;;;21.25;11.13;;;;;;;;;;4973464;28;20044;-71
2021/08/29 04:09:08;;;;;;;18.98;10.73;;;;;;;;;;4963964;28;20046;-69
2021/08/29 04:11:38;;;;;;;18.70;12.65;;;;;;;;;;4968971;28;20420;-69
2021/08/29 04:14:05;;;;;;;24.25;12.20;;;;;;;;;;4982008;28;20038;-70
2021/08/29 04:16:34;;;;;;;20.65;11.63;;;;;;;;;;4983508;28;20036;-70
2021/08/29 04:19:02;;;;;;;20.10;12.15;;;;;;;;;;4984090;28;20584;-70
2021/08/29 04:21:30;;;;;;;18.77;12.00;;;;;;;;;;4986776;28;20038;-74
2021/08/29 04:23:57;;;;;;;19.23;11.10;;;;;;;;;;4986521;28;20038;-71
2021/08/29 04:26:25;;;;;;;22.13;11.15;;;;;;;;;;4987447;28;20049;-72
2021/08/29 04:28:52;;;;;;;22.42;11.30;;;;;;;;;;4979128;28;20112;-70
2021/08/29 04:31:31;;;;;;;20.25;11.70;;;;;;;;;;4976134;28;20455;-71
2021/08/29 04:34:07;;;;;;;20.52;11.50;;;;;;;;;;4969322;28;20043;-69
2021/08/29 04:36:37;;;;;;;17.17;10.80;;;;;;;;;;4965848;28;20129;-71
2021/08/29 04:39:08;;;;;;;22.50;11.48;;;;;;;;;;4967364;28;20051;-70
2021/08/29 04:41:36;;;;;;;21.48;11.60;;;;;;;;;;4967185;28;20094;-70
2021/08/29 04:44:06;;;;;;;18.27;11.07;;;;;;;;;;4967297;28;20517;-70
2021/08/29 04:46:33;;;;;;;19.75;10.60;;;;;;;;;;4965692;28;20129;-70
2021/08/29 04:49:00;;;;;;;22.30;12.88;;;;;;;;;;4970718;28;20416;-71
2021/08/29 04:51:28;;;;;;;21.30;11.38;;;;;;;;;;4976424;28;20122;-70
2021/08/29 04:53:56;;;;;;;19.70;11.60;;;;;;;;;;4966815;28;20379;-70
2021/08/29 04:56:26;;;;;;;20.23;11.07;;;;;;;;;;4965044;28;20101;-71
2021/08/29 04:58:53;;;;;;;17.83;11.23;;;;;;;;;;4967127;28;20058;-71
2021/08/29 05:01:20;;;;;;;17.50;11.02;;;;;;;;;;4978083;28;20042;-71
2021/08/29 05:03:47;;;;;;;16.13;10.35;;;;;;;;;;4965424;28;20053;-69
2021/08/29 05:06:15;;;;;;;16.85;10.52;;;;;;;;;;4967186;28;20147;-70
2021/08/29 05:08:42;;;;;;;14.25;9.52;;;;;;;;;;4966971;28;20074;-70
2021/08/29 05:11:10;;;;;;;20.10;10.55;;;;;;;;;;4986080;28;20109;-70
2021/08/29 05:13:37;;;;;;;17.00;10.23;;;;;;;;;;4990479;28;20035;-69
2021/08/29 05:16:04;;;;;;;16.13;10.20;;;;;;;;;;4966719;28;20066;-71
2021/08/29 05:18:31;;;;;;;16.75;10.40;;;;;;;;;;4981741;28;20098;-70
2021/08/29 05:20:58;;;;;;;20.35;10.02;;;;;;;;;;4966834;28;20175;-76
2021/08/29 05:23:26;;;;;;;22.23;10.32;;;;;;;;;;4966541;28;20049;-71
2021/08/29 05:25:53;;;;;;;17.83;9.55;;;;;;;;;;4966994;28;20043;-70
2021/08/29 05:28:20;;;;;;;16.30;9.45;;;;;;;;;;4966306;28;20049;-73
2021/08/29 05:30:47;;;;;;;14.43;9.68;;;;;;;;;;4967696;28;20547;-70
2021/08/29 05:33:15;;;;;;;16.33;10.20;;;;;;;;;;4976367;28;20054;-70
2021/08/29 05:35:42;;;;;;;17.65;9.98;;;;;;;;;;4966834;28;20042;-70
2021/08/29 05:38:09;;;;;;;17.38;9.57;;;;;;;;;;4966162;28;20707;-77
2021/08/29 05:40:37;;;;;;;15.25;10.00;;;;;;;;;;4966526;28;20042;-70
2021/08/29 05:43:05;;;;;;;16.63;10.07;;;;;;;;;;4980860;28;20126;-70
2021/08/29 05:45:32;;;;;;;17.98;10.15;;;;;;;;;;4966265;28;20051;-71
2021/08/29 05:48:02;;;;;;;17.42;10.00;;;;;;;;;;4966315;28;20039;-75
2021/08/29 05:50:30;;;;;;;21.52;10.35;;;;;;;;;;4965998;28;20048;-71
2021/08/29 05:52:57;;;;;;;18.15;10.57;;;;;;;;;;4976386;28;20042;-69
2021/08/29 05:55:24;;;;;;;21.40;11.63;;;;;;;;;;4969500;28;20509;-73
2021/08/29 05:57:52;;;;;;;18.70;10.40;;;;;;;;;;4965685;28;20073;-69
2021/08/29 06:00:20;;;;;;;22.98;10.57;;;;;;;;;;4969956;28;20113;-70
2021/08/29 06:02:47;;;;;;;18.30;9.80;;;;;;;;;;4972657;28;20049;-70
2021/08/29 06:05:14;;;;;;;22.88;10.27;;;;;;;;;;4965884;28;20397;-73
2021/08/29 06:07:41;;;;;;;20.13;10.25;;;;;;;;;;4965455;28;20074;-71
2021/08/29 06:10:11;;;;;;;20.48;10.50;;;;;;;;;;4966222;28;20516;-70
2021/08/29 06:12:39;;;;;;;25.17;9.63;;;;;;;;;;4972439;28;21174;-69
2021/08/29 06:15:10;;;;;;;19.10;9.90;;;;;;;;;;4970832;28;20042;-70
2021/08/29 06:17:37;;;;;;;22.10;9.52;;;;;;;;;;4979018;28;20049;-70
2021/08/29 06:20:06;;;;;;;22.75;9.75;;;;;;;;;;4965883;28;20039;-70
2021/08/29 06:22:33;;;;;;;17.02;9.18;;;;;;;;;;4964119;28;20054;-70
2021/08/29 06:25:00;;;;;;;18.15;10.73;;;;;;;;;;4963813;28;20041;-70
2021/08/29 06:27:27;;;;;;;21.33;10.20;;;;;;;;;;4965881;28;20045;-70
2021/08/29 06:29:54;;;;;;;19.10;9.95;;;;;;;;;;4963953;28;20548;-70
2021/08/29 06:32:21;;;;;;;16.10;9.95;;;;;;;;;;4970443;28;20045;-70
2021/08/29 06:34:49;;;;;;;16.75;9.52;;;;;;;;;;4972966;28;20039;-69
2021/08/29 06:37:16;;;;;;;16.90;9.02;;;;;;;;;;4970803;28;20045;-70
2021/08/29 06:39:43;;;;;;;15.50;9.35;;;;;;;;;;4984747;28;20117;-76
2021/08/29 06:42:11;;;;;;;19.42;9.70;;;;;;;;;;4984616;28;20038;-69
2021/08/29 06:44:38;;;;;;;19.83;9.40;;;;;;;;;;4983997;28;20104;-71
2021/08/29 06:47:05;;;;;;;18.55;9.38;;;;;;;;;;4984884;28;20408;-69
2021/08/29 06:49:32;;;;;;;16.05;8.45;;;;;;;;;;4984148;28;20440;-75
2021/08/29 06:51:59;;;;;;;15.13;8.55;;;;;;;;;;4984412;28;20117;-70
2021/08/29 06:54:26;;;;;;;18.92;9.07;;;;;;;;;;4972741;28;20043;-70
2021/08/29 06:56:54;;;;;;;19.92;9.80;;;;;;;;;;4970050;28;20425;-73
2021/08/29 06:59:21;;;;;;;17.80;8.35;;;;;;;;;;4965224;28;20125;-70
2021/08/29 07:01:48;;;;;;;15.85;8.82;;;;;;;;;;4963936;28;20093;-70
2021/08/29 07:04:15;;;;;;;15.40;8.95;;;;;;;;;;4964504;28;20118;-70
2021/08/29 07:06:42;;;;;;;18.70;10.40;;;;;;;;;;4964829;28;20039;-69
2021/08/29 07:09:09;;;;;;;16.00;10.07;;;;;;;;;;4963120;28;20556;-69
2021/08/29 07:11:37;;;;;;;19.58;9.90;;;;;;;;;;4964600;28;20485;-70
2021/08/29 07:14:04;;;;;;;19.38;9.73;;;;;;;;;;4965939;28;20054;-74
2021/08/29 07:16:31;;;;;;;20.83;10.00;;;;;;;;;;4990752;28;20038;-70
2021/08/29 07:18:59;;;;;;;16.30;9.20;;;;;;;;;;4964691;28;20050;-71
2021/08/29 07:21:26;;;;;;;19.23;9.80;;;;;;;;;;4964917;28;20409;-72
2021/08/29 07:23:53;;;;;;;16.83;9.52;;;;;;;;;;4964413;28;20045;-70
2021/08/29 07:26:20;;;;;;;17.05;9.32;;;;;;;;;;4964869;28;21577;-70
2021/08/29 07:28:48;;;;;;;19.65;9.65;;;;;;;;;;4964310;28;20049;-70
2021/08/29 07:31:15;;;;;;;16.52;8.77;;;;;;;;;;4965623;28;20509;-74
2021/08/29 07:33:43;;;;;;;16.90;9.32;;;;;;;;;;4974161;28;20091;-69
2021/08/29 07:36:10;;;;;;;16.05;9.13;;;;;;;;;;4967004;28;20047;-69
2021/08/29 07:38:37;;;;;;;17.55;9.60;;;;;;;;;;4972579;28;20415;-70
2021/08/29 07:41:04;;;;;;;20.05;10.02;;;;;;;;;;4975237;28;20160;-75
2021/08/29 07:43:33;;;;;;;16.67;9.27;;;;;;;;;;4964445;28;20047;-70
2021/08/29 07:46:00;;;;;;;;;;;;;;;;;;4964865;28;20050;-69
2021/08/29 07:48:28;;;;;;;15.43;9.05;;;;;;;;;;4964730;28;20376;-71
2021/08/29 07:50:55;;;;;;;16.20;9.27;;;;;;;;;;4964370;28;20047;-70
2021/08/29 07:53:22;;;;;;;15.35;8.73;;;;;;;;;;4963666;28;20092;-70
2021/08/29 07:55:49;;;;;;;22.38;9.38;;;;;;;;;;4968775;28;20047;-69
2021/08/29 07:58:18;;;;;;;17.73;9.43;;;;;;;;;;4992768;28;20044;-70
2021/08/29 08:00:44;;;;;;;;;;;;;;;;;;4968499;28;20043;-70
2021/08/29 08:03:12;;;;;;;20.35;9.20;;;;;;;;;;4966688;28;19961;-78
2021/08/29 08:05:39;;;;;;;15.27;9.45;;;;;;;;;;4968047;28;20031;-70
2021/08/29 08:08:06;;;;;;;18.23;9.77;;;;;;;;;;4967868;28;20486;-70
2021/08/29 08:10:33;;;;;;;17.90;9.57;;;;;;;;;;4968106;28;20493;-71
2021/08/29 08:13:01;;;;;;;19.10;9.50;;;;;;;;;;4968051;28;20066;-76
2021/08/29 08:15:29;;;;;;;14.75;8.95;;;;;;;;;;4967718;28;20101;-71
2021/08/29 08:17:56;;;;;;;16.00;9.23;;;;;;;;;;4973066;28;20055;-70
2021/08/29 08:20:23;;;;;;;16.95;10.32;;;;;;;;;;4976196;28;20035;-73
2021/08/29 08:22:50;;;;;;;17.05;10.55;;;;;;;;;;4967715;28;20448;-70
2021/08/29 08:25:17;;;;;;;15.75;9.55;;;;;;;;;;4968116;28;20419;-70
2021/08/29 08:27:44;;;;;;;19.30;9.85;;;;;;;;;;4982136;28;20053;-70
2021/08/29 08:30:12;;;;;;;15.30;9.30;;;;;;;;;;4968213;28;20120;-70
2021/08/29 08:32:39;;;;;;;19.00;10.30;;;;;;;;;;4971699;28;20582;-70
2021/08/29 08:35:07;;;;;;;19.33;9.82;;;;;;;;;;4991272;28;20133;-70
2021/08/29 08:37:34;;;;;;;17.75;9.32;;;;;;;;;;4971200;28;20085;-69
2021/08/29 08:40:04;;;;;;;15.68;9.43;;;;;;;;;;4976678;28;20409;-77
2021/08/29 08:42:31;;;;;;;21.15;9.98;;;;;;;;;;4967257;28;20049;-70
2021/08/29 08:45:00;;;;;;;16.05;9.82;;;;;;;;;;4967637;28;20031;-75
2021/08/29 08:47:29;;;;;;;14.63;8.98;;;;;;;;;;4967416;28;20064;-70
2021/08/29 08:49:58;;;;;;;15.38;9.32;;;;;;;;;;4967357;28;20043;-70
2021/08/29 08:52:27;;;;;;;15.38;9.93;;;;;;;;;;4981668;28;20047;-70
2021/08/29 08:54:59;;;;;;;17.58;9.82;;;;;;;;;;4967562;28;20118;-70
2021/08/29 08:57:26;;;;;;;14.60;9.40;;;;;;;;;;4982106;28;20047;-70
2021/08/29 08:59:53;;;;;;;14.40;9.43;;;;;;;;;;4974715;28;20047;-70
2021/08/29 09:02:22;;;;;;;17.63;9.82;;;;;;;;;;4973591;28;20050;-70
2021/08/29 09:04:50;;;;;;;14.90;9.15;;;;;;;;;;4966942;28;20038;-69
2021/08/29 09:07:17;;;;;;;;;;;;;;;;;;4967239;28;20839;-70
2021/08/29 09:09:45;;;;;;;16.42;9.00;;;;;;;;;;4967291;28;19976;-70
2021/08/29 09:12:12;;;;;;;13.60;9.05;;;;;;;;;;4966897;28;20042;-70
2021/08/29 09:14:49;;;;;;;16.58;9.07;;;;;;;;;;4965183;28;20043;-70
2021/08/29 09:17:22;;;;;;;15.57;9.27;;;;;;;;;;4966856;28;20042;-70
2021/08/29 09:19:51;;;;;;;17.77;9.13;;;;;;;;;;4977048;28;20050;-70
2021/08/29 09:22:26;;;;;;;13.63;8.85;;;;;;;;;;4984955;28;20050;-70
2021/08/29 09:24:53;;;;;;;11.90;8.55;;;;;;;;;;4966394;28;20038;-70
2021/08/29 09:27:24;;;;;;;12.77;8.13;;;;;;;;;;4965183;28;20039;-70
2021/08/29 09:29:51;;;;;;;16.08;9.25;;;;;;;;;;4966340;28;20058;-70
2021/08/29 09:32:22;;;;;;;14.30;8.10;;;;;;;;;;4983423;28;20121;-70
2021/08/29 09:34:59;;;;;;;14.70;7.72;;;;;;;;;;4975019;28;20078;-70
2021/08/29 09:37:27;;;;;;;14.48;7.93;;;;;;;;;;4975688;28;20493;-74
2021/08/29 09:40:16;;;;;;;10.98;7.70;;;;;;;;;;4976622;28;20047;-70
2021/08/29 09:42:47;;;;;;;14.73;8.75;;;;;;;;;;4966398;28;20043;-78
2021/08/29 09:45:24;;;;;;;11.48;7.90;;;;;;;;;;4966413;28;20535;-69
2021/08/29 09:47:52;;;;;;;16.58;8.35;;;;;;;;;;4966309;28;20527;-69
2021/08/29 09:50:24;;;;;;;15.32;8.57;;;;;;;;;;4965627;28;20049;-70
2021/08/29 09:53:07;;;;;;;14.13;8.50;;;;;;;;;;4965945;28;20556;-69
2021/08/29 09:55:36;;;;;;;17.55;8.80;;;;;;;;;;4966186;28;20402;-70
2021/08/29 09:58:22;;;;;;;12.65;8.45;;;;;;;;;;4964078;28;20062;-70
2021/08/29 10:01:08;;;;;;;14.70;8.30;;;;;;;;;;4972357;28;20054;-69
2021/08/29 10:03:38;;;;;;;13.27;7.45;;;;;;;;;;4974306;28;20042;-70
2021/08/29 10:06:26;;;;;;;11.18;7.30;;;;;;;;;;4968644;28;20089;-69
2021/08/29 10:08:58;;;;;;;13.68;7.45;;;;;;;;;;4976434;28;20063;-71
2021/08/29 10:11:27;;;;;;;12.10;7.03;;;;;;;;;;4948132;28;20085;-70
2021/08/29 10:13:56;;;;;;;24.52;13.73;;;;;;;;;;4965834;28;20061;-69
2021/08/29 10:16:26;;;;;;;37.60;23.30;;;;;;;;;;4965587;28;20133;-70
2021/08/29 10:18:55;;;;;;;109.65;65.05;;;;;;;;;;4964832;28;20039;-70
2021/08/29 10:21:24;;;;;;;27.42;17.77;;;;;;;;;;4973155;28;20046;-70
2021/08/29 10:23:54;;;;;;;20.00;11.63;;;;;;;;;;4972382;28;20509;-69
2021/08/29 10:26:23;;;;;;;14.88;8.80;;;;;;;;;;4965504;28;20043;-70
2021/08/29 10:29:07;;;;;;;13.95;8.65;;;;;;;;;;4963729;28;20039;-70
2021/08/29 10:31:39;;;;;;;21.15;10.70;;;;;;;;;;4965658;28;20117;-70
2021/08/29 10:34:07;;;;;;;14.82;8.82;;;;;;;;;;4965376;28;20051;-70
2021/08/29 10:36:36;;;;;;;14.50;7.53;;;;;;;;;;4963519;28;20059;-70
2021/08/29 10:39:03;;;;;;;12.45;7.82;;;;;;;;;;4965691;28;20043;-70
2021/08/29 10:41:31;;;;;;;11.55;7.32;;;;;;;;;;4965474;28;20046;-71
2021/08/29 10:43:59;;;;;;;10.88;5.70;;;;;;;;;;4963581;28;20126;-68
2021/08/29 10:46:28;;;;;;;11.40;5.10;;;;;;;;;;4980125;28;20063;-69
2021/08/29 10:48:56;;;;;;;7.68;4.82;;;;;;;;;;4965317;28;20417;-70
2021/08/29 10:51:28;;;;;;;7.93;4.63;;;;;;;;;;4965301;28;20497;-72
2021/08/29 10:53:58;;;;;;;8.57;4.55;;;;;;;;;;4961602;28;20038;-70
2021/08/29 10:56:29;;;;;;;9.30;4.22;;;;;;;;;;4971840;28;20046;-72
2021/08/29 10:59:08;;;;;;;7.93;4.50;;;;;;;;;;4963305;28;20058;-70
2021/08/29 11:01:40;;;;;;;8.20;4.88;;;;;;;;;;4964712;28;20066;-75
2021/08/29 11:04:20;;;;;;;7.28;3.78;;;;;;;;;;4979419;28;20722;-68
2021/08/29 11:06:52;;;;;;;7.95;4.38;;;;;;;;;;4964790;28;20046;-69
2021/08/29 11:09:37;;;;;;;10.82;4.90;;;;;;;;;;4964806;28;20449;-72
2021/08/29 11:12:15;;;;;;;7.82;4.47;;;;;;;;;;4964459;28;20066;-72
2021/08/29 11:14:48;;;;;;;7.95;4.45;;;;;;;;;;4964468;28;20047;-76
2021/08/29 11:17:24;;;;;;;9.30;4.32;;;;;;;;;;4977846;28;20496;-70
2021/08/29 11:20:09;;;;;;;7.32;4.25;;;;;;;;;;4987459;28;20050;-69
2021/08/29 11:22:43;;;;;;;10.70;4.50;;;;;;;;;;4975457;28;20116;-71
2021/08/29 11:25:12;;;;;;;7.30;4.22;;;;;;;;;;4964526;28;20050;-69
2021/08/29 11:27:44;;;;;;;7.07;4.20;;;;;;;;;;4964215;28;20497;-71
2021/08/29 11:30:23;;;;;;;7.38;4.30;;;;;;;;;;4964122;28;20396;-71
2021/08/29 11:33:01;;;;;;;7.35;4.13;;;;;;;;;;4978712;28;20072;-74
2021/08/29 11:35:30;;;;;;;8.35;3.97;;;;;;;;;;4964198;28;20046;-71
2021/08/29 11:38:08;;;;;;;7.82;4.20;;;;;;;;;;4964149;28;20493;-75
2021/08/29 11:40:56;;;;;;;5.68;3.90;;;;;;;;;;4962324;28;20054;-71
2021/08/29 11:43:36;;;;;;;9.68;4.97;;;;;;;;;;4966430;28;20066;-71
2021/08/29 11:46:15;;;;;;;6.80;3.85;;;;;;;;;;4991971;28;20062;-71
2021/08/29 11:48:57;;;;;;;8.35;4.20;;;;;;;;;;4987819;28;21062;-71
2021/08/29 11:51:38;;;;;;;10.23;4.85;;;;;;;;;;4963965;28;20055;-72
2021/08/29 11:54:07;;;;;;;7.72;3.95;;;;;;;;;;4964803;28;20557;-71
2021/08/29 11:56:36;;;;;;;8.05;3.78;;;;;;;;;;4979511;28;20041;-70
2021/08/29 11:59:08;;;;;;;11.77;4.18;;;;;;;;;;4963740;28;20053;-71
2021/08/29 12:01:36;;;;;;;9.68;3.83;;;;;;;;;;4964634;28;20045;-71
2021/08/29 12:04:04;;;;;;;7.50;3.83;;;;;;;;;;4962990;28;20034;-71
2021/08/29 12:06:33;;;;;;;6.88;3.83;;;;;;;;;;4979814;28;20043;-70
2021/08/29 12:09:14;;;;;;;8.65;3.67;;;;;;;;;;4964757;28;20105;-71
2021/08/29 12:11:42;;;;;;;7.68;3.80;;;;;;;;;;4963233;28;20043;-71
2021/08/29 12:14:23;;;;;;;7.03;4.07;;;;;;;;;;4964501;28;20042;-71
2021/08/29 12:16:53;;;;;;;9.30;3.58;;;;;;;;;;4964643;28;20053;-71
2021/08/29 12:19:26;;;;;;;9.55;3.97;;;;;;;;;;4964952;28;20062;-71
2021/08/29 12:21:54;;;;;;;10.25;4.30;;;;;;;;;;4963940;28;20046;-71
2021/08/29 12:24:28;;;;;;;9.75;4.80;;;;;;;;;;4979446;28;20042;-71
2021/08/29 12:27:03;;;;;;;8.27;4.53;;;;;;;;;;4963453;28;20118;-71
2021/08/29 12:29:32;;;;;;;10.18;5.40;;;;;;;;;;4965308;28;20047;-71
2021/08/29 12:32:14;;;;;;;9.52;4.95;;;;;;;;;;4964422;28;20061;-71
2021/08/29 12:34:43;;;;;;;9.65;4.97;;;;;;;;;;4964657;28;20043;-70
2021/08/29 12:37:12;;;;;;;;;;;;;;;;;;4964977;28;20125;-70
2021/08/29 12:39:40;;;;;;;9.15;4.88;;;;;;;;;;4964282;28;19969;-77
2021/08/29 12:42:20;;;;;;;8.57;4.88;;;;;;;;;;4967636;28;20055;-77
2021/08/29 12:44:48;;;;;;;13.05;6.75;;;;;;;;;;4968365;28;20055;-76
2021/08/29 12:47:16;;;;;;;10.20;6.03;;;;;;;;;;4966651;28;21413;-71
2021/08/29 12:49:45;;;;;;;11.85;6.45;;;;;;;;;;4968151;28;20091;-71
2021/08/29 12:52:18;;;;;;;10.32;6.60;;;;;;;;;;4967734;28;20047;-70
2021/08/29 12:54:46;;;;;;;8.82;4.75;;;;;;;;;;4967937;28;20058;-71
2021/08/29 12:57:13;;;;;;;9.23;5.05;;;;;;;;;;4967923;28;20126;-71
2021/08/29 12:59:42;;;;;;;9.05;4.80;;;;;;;;;;4968300;28;20035;-70
2021/08/29 13:02:17;;;;;;;9.73;5.10;;;;;;;;;;4967792;28;20042;-71
2021/08/29 13:04:48;;;;;;;8.48;4.68;;;;;;;;;;4967489;28;20062;-71
2021/08/29 13:07:16;;;;;;;10.77;5.35;;;;;;;;;;4967755;28;20042;-74
2021/08/29 13:09:43;;;;;;;7.63;4.85;;;;;;;;;;4967672;28;20042;-71
2021/08/29 13:12:29;;;;;;;8.70;4.55;;;;;;;;;;4966207;28;20039;-70
2021/08/29 13:15:00;;;;;;;12.38;4.75;;;;;;;;;;4966197;28;20063;-76
2021/08/29 13:17:30;;;;;;;9.30;4.57;;;;;;;;;;4967172;28;20046;-71
2021/08/29 13:19:58;;;;;;;11.98;5.63;;;;;;;;;;4967515;28;20047;-75
2021/08/29 13:22:33;;;;;;;;;;;;;;;;;;4966267;28;20046;-77
2021/08/29 13:25:31;;;;;;;11.52;5.50;;;;;;;;;;4967722;28;19941;-71
2021/08/29 13:28:01;;;;;;;11.10;7.47;;;;;;;;;;4966875;28;20061;-71
2021/08/29 13:30:33;;;;;;;32.17;19.17;;;;;;;;;;4967160;28;20533;-71
2021/08/29 13:33:01;;;;;;;34.78;21.20;;;;;;;;;;4967363;28;20527;-71
2021/08/29 13:35:34;;;;;;;27.77;16.88;;;;;;;;;;4972138;28;20047;-72
2021/08/29 13:38:02;;;;;;;16.75;10.20;;;;;;;;;;4971215;28;20057;-72
2021/08/29 13:40:32;;;;;;;17.10;8.07;;;;;;;;;;4967810;28;20049;-71
2021/08/29 13:43:01;;;;;;;18.25;9.10;;;;;;;;;;4993396;28;20506;-71
2021/08/29 13:45:35;;;;;;;24.52;15.75;;;;;;;;;;4984372;28;20046;-71
2021/08/29 13:48:05;;;;;;;11.80;7.32;;;;;;;;;;4982851;28;20050;-72
2021/08/29 13:50:34;;;;;;;10.52;6.20;;;;;;;;;;4981009;28;20448;-72
2021/08/29 13:53:09;;;;;;;10.85;6.15;;;;;;;;;;4981344;28;20054;-71
2021/08/29 13:55:39;;;;;;;11.90;6.60;;;;;;;;;;4981211;28;20073;-72
2021/08/29 13:58:08;;;;;;;9.07;4.97;;;;;;;;;;4980285;28;20409;-75
2021/08/29 14:00:37;;;;;;;;;;;;;;;;;;4997122;28;20038;-71
2021/08/29 14:03:04;;;;;;;8.88;4.72;;;;;;;;;;4981482;28;20352;-73
2021/08/29 14:05:33;;;;;;;9.48;4.82;;;;;;;;;;4981171;28;20425;-71
2021/08/29 14:08:00;;;;;;;;;;;;;;;;;;4982556;28;20049;-73
2021/08/29 14:10:29;;;;;;;11.57;5.13;;;;;;;;;;4984394;28;19917;-70
2021/08/29 14:12:56;;;;;;;9.65;4.75;;;;;;;;;;4983690;28;20034;-72
2021/08/29 14:15:24;;;;;;;8.80;5.00;;;;;;;;;;4979410;28;20554;-72
2021/08/29 14:17:51;;;;;;;10.98;4.50;;;;;;;;;;4981614;28;20050;-70
2021/08/29 14:20:19;;;;;;;9.10;4.75;;;;;;;;;;4981984;28;20042;-77
2021/08/29 14:22:48;;;;;;;8.77;4.63;;;;;;;;;;4982030;28;20046;-70
2021/08/29 14:25:16;;;;;;;7.63;4.78;;;;;;;;;;4982025;28;20043;-71
2021/08/29 14:27:51;;;;;;;8.52;4.63;;;;;;;;;;4982004;28;20073;-69
2021/08/29 14:30:34;;;;;;;6.85;4.78;;;;;;;;;;4981946;28;20054;-72
2021/08/29 14:33:01;;;;;;;8.73;4.60;;;;;;;;;;4981834;28;20038;-74
2021/08/29 14:35:29;;;;;;;10.55;6.22;;;;;;;;;;4979792;28;20125;-72
2021/08/29 14:37:57;;;;;;;13.68;7.57;;;;;;;;;;4981419;28;20400;-73
2021/08/29 14:40:24;;;;;;;7.63;4.35;;;;;;;;;;4992855;28;20089;-71
2021/08/29 14:42:52;;;;;;;8.55;4.30;;;;;;;;;;4980938;28;20047;-72
2021/08/29 14:45:19;;;;;;;8.25;4.05;;;;;;;;;;4980961;28;20066;-73
2021/08/29 14:47:47;;;;;;;6.75;3.78;;;;;;;;;;4995659;28;20038;-69
2021/08/29 14:50:14;;;;;;;6.43;3.35;;;;;;;;;;4979191;28;20089;-75
2021/08/29 14:52:42;;;;;;;7.65;3.60;;;;;;;;;;4976986;28;20062;-71